IK5NLA Vaiano IT current weather conditions

sailwx.info

Wind from 024 at 8 knots gusting 8

Air temperature 15.6° C
Dewpoint 12.3° C

Last reported at 2014-Oct-02 03:45 UTC.
Time now 2014-Oct-02 04:29 UTC

Location: N 43°58' E 011°06'.
View on Google Maps.

See reports from other nearby stations

  
Tides and Currents Weather Stations Pressure Air Temp Water Temp Dewpoint Dewpoint Depression Visibility Wind Speed Wind Dir Waves Ship Positions
date/time (UTC)wind fromknots sea level pressurealtimeterstation pressurevisibilityair tempwater tempwave heightnotes
2014-Oct-02 03:45 024 8 gusting 8 15.6
2014-Oct-02 03:35 080 1 gusting 8 15.6
2014-Oct-02 03:25 075 7 gusting 9 16.1
2014-Oct-02 03:15 046 12 gusting 14 16.1
2014-Oct-02 03:05 075 15 gusting 19 15.6
2014-Oct-02 02:55 117 4 gusting 8 15.6
2014-Oct-02 02:45 080 6 gusting 6 15.6
2014-Oct-02 02:35 038 5 gusting 6 15.6
2014-Oct-02 02:25 030 11 gusting 14 15.6
2014-Oct-02 02:15 180 2 gusting 4 15.6
2014-Oct-02 02:05 069 3 gusting 6 15.6
2014-Oct-02 01:55 101 4 gusting 6 15.6
2014-Oct-02 01:45 090 5 gusting 5 16.1
2014-Oct-02 01:35 066 7 gusting 7 16.1
2014-Oct-02 01:25 077 5 gusting 7 15.6
2014-Oct-02 01:15 059 7 gusting 7 15.6
2014-Oct-02 01:05 080 3 gusting 3 15.6
2014-Oct-02 00:55 087 4 gusting 4 15.6
2014-Oct-02 00:45 049 3 gusting 4 15.6
2014-Oct-02 00:35 061 5 gusting 5 15.6
2014-Oct-02 00:25 063 2 gusting 3 15.6
2014-Oct-02 00:15 040 3 gusting 3 15.6
2014-Oct-02 00:05 086 4 gusting 6 15.6
2014-Oct-01 23:55 070 4 gusting 4 15.6
2014-Oct-01 23:45 088 5 gusting 8 15.6
2014-Oct-01 23:35 102 6 gusting 6 15.6
2014-Oct-01 23:25 048 4 gusting 7 15.6
2014-Oct-01 23:15 079 4 gusting 5 15.6
2014-Oct-01 23:05 052 2 gusting 2 15.6
2014-Oct-01 22:55 080 8 gusting 8 15.6
2014-Oct-01 22:45 083 4 gusting 5 15.6
2014-Oct-01 22:35 094 3 gusting 6 15.6
2014-Oct-01 22:25 103 6 gusting 6 15.6
2014-Oct-01 22:15 067 3 gusting 5 15.6
2014-Oct-01 22:05 057 2 gusting 2 15.6
2014-Oct-01 21:55 084 2 gusting 2 15.6
2014-Oct-01 21:45 078 2 gusting 2 15.6
2014-Oct-01 21:35 077 2 gusting 2 15.6
2014-Oct-01 21:25 067 2 gusting 3 15.6
2014-Oct-01 21:15 073 3 gusting 4 15.6
2014-Oct-01 21:05 026 2 gusting 2 16.1
2014-Oct-01 20:55 028 1 gusting 2 16.1
2014-Oct-01 20:45 025 2 gusting 2 16.1
2014-Oct-01 20:35 307 4 gusting 5 16.1
2014-Oct-01 20:15 010 3 gusting 5 16.7
2014-Oct-01 20:05 032 2 gusting 4 16.7
2014-Oct-01 19:55 039 2 gusting 3 16.7
2014-Oct-01 19:45 038 3 gusting 3 16.7
2014-Oct-01 19:36 078 2 gusting 2 16.7
2014-Oct-01 19:25 059 2 gusting 2 16.7
2014-Oct-01 19:15 013 4 gusting 4 16.7
2014-Oct-01 19:05 032 7 gusting 8 16.7
2014-Oct-01 18:55 058 3 gusting 3 16.7
2014-Oct-01 18:45 360 3 gusting 4 16.7
2014-Oct-01 18:35 017 5 gusting 5 16.7
2014-Oct-01 18:25 032 4 gusting 4 16.7
2014-Oct-01 18:15 022 5 gusting 6 16.7
2014-Oct-01 18:05 041 3 gusting 5 16.7
2014-Oct-01 17:55 336 4 gusting 5 16.7
2014-Oct-01 17:46 051 4 gusting 7 16.1
2014-Oct-01 17:35 041 7 gusting 7 16.7
2014-Oct-01 17:25 321 16.1
2014-Oct-01 07:36 321 16.1
2014-Oct-01 07:26 321 0 gusting 1 16.1
2014-Oct-01 07:16 321 0 gusting 1 16.1
2014-Oct-01 07:06 321 16.1
2014-Oct-01 06:56 337 16.7
2014-Oct-01 06:46 040 16.7
2014-Oct-01 06:36 040 1 gusting 1 16.7
2014-Oct-01 06:26 060 0 gusting 2 16.7
2014-Oct-01 06:16 060 1 gusting 2 16.7
2014-Oct-01 06:06 245 16.7
2014-Oct-01 05:56 245 0 gusting 1 16.7
2014-Oct-01 05:46 360 0 gusting 1 16.1
2014-Oct-01 05:36 355 2 gusting 3 16.1
2014-Oct-01 05:26 340 3 gusting 4 16.1
2014-Oct-01 05:16 021 2 gusting 3 16.1
2014-Oct-01 05:06 025 1 gusting 1 16.1
2014-Oct-01 04:56 005 0 gusting 0 16.1
2014-Oct-01 04:46 015 1 gusting 2 16.1
2014-Oct-01 04:36 344 1 gusting 1 16.1
2014-Oct-01 04:26 350 1 gusting 2 16.1
2014-Oct-01 04:16 338 2 gusting 3 16.1
2014-Oct-01 04:06 018 2 gusting 2 16.1
2014-Oct-01 03:56 014 2 gusting 2 16.1
2014-Oct-01 03:46 348 1 gusting 2 16.1
2014-Oct-01 03:36 348 0 gusting 0 16.1
2014-Oct-01 03:26 348 0 gusting 1 16.1
2014-Oct-01 03:16 348 16.1
2014-Oct-01 03:06 348 0 gusting 0 16.1
2014-Oct-01 02:56 348 16.1
2014-Oct-01 02:46 348 1 gusting 1 16.1
2014-Oct-01 02:36 013 1 gusting 1 16.1
2014-Oct-01 02:26 013 16.1
2014-Oct-01 02:16 013 16.1
2014-Oct-01 02:06 013 1 gusting 1 16.7
2014-Oct-01 01:56 013 0 gusting 2 16.1
2014-Oct-01 01:46 025 0 gusting 1 16.1
2014-Oct-01 01:36 022 16.1
2014-Oct-01 01:26 022 16.1
2014-Oct-01 01:16 022 0 gusting 2 16.1
2014-Oct-01 01:06 044 16.1
2014-Oct-01 00:56 044 1 gusting 2 16.1
2014-Oct-01 00:46 051 16.1
2014-Oct-01 00:36 051 16.1
2014-Oct-01 00:26 296 16.1
2014-Oct-01 00:16 297 16.1
2014-Oct-01 00:06 295 16.1
2014-Sep-30 23:56 296 16.1
2014-Sep-30 23:46 296 16.1
2014-Sep-30 23:36 322 0 gusting 1 16.1
2014-Sep-30 23:26 322 0 gusting 2 16.1
2014-Sep-30 23:16 323 0 gusting 1 16.1
2014-Sep-30 23:06 005 16.1
2014-Sep-30 22:56 018 1 gusting 2 16.1
2014-Sep-30 22:46 019 16.1
2014-Sep-30 22:36 018 16.1
2014-Sep-30 22:26 021 16.7
2014-Sep-30 22:16 021 16.7
2014-Sep-30 22:06 021 16.7
2014-Sep-30 21:56 005 17.2
2014-Sep-30 21:46 005 17.2
2014-Sep-30 21:36 005 17.2
2014-Sep-30 21:26 360 1 gusting 2 17.2
2014-Sep-30 21:16 360 0 gusting 1 17.2
2014-Sep-30 21:06 360 17.2
2014-Sep-30 20:56 005 17.2
2014-Sep-30 20:46 005 17.2
2014-Sep-30 20:36 170 17.8
2014-Sep-30 20:26 168 1 gusting 1 17.8
2014-Sep-30 20:16 307 17.2
2014-Sep-30 20:06 200 17.8
2014-Sep-30 19:56 197 17.8
2014-Sep-30 19:46 264 18.3
2014-Sep-30 19:36 036 2 gusting 2 17.8
2014-Sep-30 19:26 325 18.3
2014-Sep-30 19:16 325 18.3
2014-Sep-30 19:06 329 1 gusting 2 18.3
2014-Sep-30 18:56 277 2 gusting 2 18.3
2014-Sep-30 18:46 281 0 gusting 0 17.8
2014-Sep-30 18:36 155 0 gusting 1 17.8
2014-Sep-30 18:26 269 18.3
2014-Sep-30 18:16 295 1 gusting 2 18.9
2014-Sep-30 18:06 290 3 gusting 3 18.9
2014-Sep-30 17:56 295 2 gusting 3 18.9
2014-Sep-30 17:46 273 2 gusting 2 18.9
2014-Sep-30 17:36 321 4 gusting 5 18.9
2014-Sep-30 17:26 320 2 gusting 6 19.4
2014-Sep-30 17:16 290 4 gusting 4 18.9
2014-Sep-30 17:06 277 2 gusting 4 19.4
2014-Sep-30 16:56 298 2 gusting 3 19.4
2014-Sep-30 16:46 306 2 gusting 3 19.4
2014-Sep-30 16:36 280 2 gusting 5 19.4
2014-Sep-30 16:26 283 2 gusting 2 19.4
2014-Sep-30 16:16 280 3 gusting 6 20.0
2014-Sep-30 16:06 280 2 gusting 4 20.0
2014-Sep-30 15:56 284 6 gusting 7 20.0
2014-Sep-30 15:46 253 2 gusting 2 20.0
2014-Sep-30 15:36 265 4 gusting 4 20.0
2014-Sep-30 15:26 273 1 gusting 2 20.0
2014-Sep-30 15:16 255 2 gusting 4 20.6
2014-Sep-30 15:06 237 2 gusting 2 20.6
2014-Sep-30 14:56 261 2 gusting 2 20.6
2014-Sep-30 14:46 251 3 gusting 3 20.6
2014-Sep-30 14:36 198 5 gusting 7 21.1
2014-Sep-30 14:26 184 1 gusting 3 20.6
2014-Sep-30 14:16 272 0 gusting 2 20.6
2014-Sep-30 14:06 271 1 gusting 5 20.6
2014-Sep-30 13:56 257 2 gusting 6 20.6
2014-Sep-30 13:46 218 2 gusting 4 20.6
2014-Sep-30 13:36 265 2 gusting 8 20.6
2014-Sep-30 13:26 219 4 gusting 4 20.6
2014-Sep-30 13:16 205 5 gusting 5 20.6
2014-Sep-30 13:06 215 7 gusting 7 21.1
2014-Sep-30 12:56 246 3 gusting 7 21.1
2014-Sep-30 12:46 276 4 gusting 6 20.6
2014-Sep-30 12:36 206 3 gusting 9 20.6
2014-Sep-30 12:26 180 4 gusting 6 20.6
2014-Sep-30 12:16 207 9 gusting 9 20.6
2014-Sep-30 12:06 210 6 gusting 7 20.0
2014-Sep-30 11:56 213 4 gusting 4 20.6
2014-Sep-30 11:46 236 3 gusting 7 20.6
2014-Sep-30 11:36 167 2 gusting 2 20.0
2014-Sep-30 11:26 254 6 gusting 8 20.6
2014-Sep-30 11:16 170 3 gusting 5 20.0
2014-Sep-30 11:06 253 3 gusting 8 20.0
2014-Sep-30 10:56 259 2 gusting 7 20.0
2014-Sep-30 10:46 191 2 gusting 8 20.0
2014-Sep-30 10:36 261 6 gusting 8 20.0
2014-Sep-30 10:26 209 3 gusting 7 19.4
2014-Sep-30 10:16 214 7 gusting 7 19.4
2014-Sep-30 10:06 256 1 gusting 5 19.4
2014-Sep-30 09:56 230 6 gusting 7 19.4
2014-Sep-30 09:46 196 3 gusting 7 18.9
2014-Sep-30 09:36 241 3 gusting 7 18.9
2014-Sep-30 09:26 167 2 gusting 8 18.9
2014-Sep-30 09:16 203 6 gusting 8 18.9
2014-Sep-30 09:06 204 3 gusting 8 18.9
2014-Sep-30 08:56 202 6 gusting 8 18.9
2014-Sep-30 08:46 172 1 gusting 2 18.3
2014-Sep-30 08:36 165 2 gusting 4 18.3
2014-Sep-30 08:26 186 1 gusting 3 18.3
2014-Sep-30 08:16 124 1 gusting 2 18.3
2014-Sep-30 08:06 152 2 gusting 2 17.8
2014-Sep-30 07:56 130 2 gusting 2 17.8
2014-Sep-30 07:46 142 1 gusting 1 17.8
2014-Sep-30 07:36 115 2 gusting 2 17.8
2014-Sep-30 07:26 082 1 gusting 2 17.2
2014-Sep-30 07:16 119 2 gusting 2 17.2
2014-Sep-30 07:06 112 17.8
2014-Sep-30 06:56 097 17.2
2014-Sep-30 06:46 059 1 gusting 1 17.2
2014-Sep-30 06:36 059 0 gusting 1 17.2
2014-Sep-30 06:26 042 1 gusting 1 16.7
2014-Sep-30 06:16 042 16.7
2014-Sep-30 06:06 042 0 gusting 0 16.7
2014-Sep-30 05:56 010 2 gusting 2 16.1
2014-Sep-30 05:46 360 2 gusting 2 15.6
2014-Sep-30 04:46 014 1 gusting 3 14.4
2014-Sep-30 04:36 340 2 gusting 2 14.4
2014-Sep-30 04:26 342 2 gusting 2 14.4
2014-Sep-30 04:16 340 2 gusting 3 15.0
2014-Sep-30 04:06 339 2 gusting 2 15.0